Time;durP1;ratioP1;P1;durP2;ratioP2;P2;SDS_P1;SDS_P2;PMS_P1;PMS_P2;Temp;Humidity;BMP_temperature;BMP_pressure;BME280_temperature;BME280_humidity;BME280_pressure;Samples;Min_cycle;Max_cycle;Signal;HPM_P1;HPM_P2
2023/07/18 00:01:34;;;;;;;9.20;6.33;;;;;;;;;;5057774;28;20671;-63
2023/07/18 00:04:00;;;;;;;9.37;6.27;;;;;;;;;;5056667;28;20203;-63
2023/07/18 00:06:26;;;;;;;10.87;6.77;;;;;;;;;;5056503;28;20751;-63
2023/07/18 00:08:52;;;;;;;9.03;6.60;;;;;;;;;;5056571;28;20200;-64
2023/07/18 00:11:20;;;;;;;11.53;6.50;;;;;;;;;;5056429;28;20644;-63
2023/07/18 00:13:46;;;;;;;10.77;6.53;;;;;;;;;;5056546;28;20174;-63
2023/07/18 00:16:12;;;;;;;11.43;7.10;;;;;;;;;;5056398;28;20194;-63
2023/07/18 00:18:38;;;;;;;9.87;6.63;;;;;;;;;;5038397;28;20228;-63
2023/07/18 00:21:05;;;;;;;11.40;7.43;;;;;;;;;;5056313;28;20176;-64
2023/07/18 00:23:31;;;;;;;12.33;7.27;;;;;;;;;;5038411;28;20240;-64
2023/07/18 00:25:57;;;;;;;10.37;6.67;;;;;;;;;;5056242;28;20203;-64
2023/07/18 00:28:23;;;;;;;9.37;6.90;;;;;;;;;;5038289;28;20201;-63
2023/07/18 00:30:49;;;;;;;13.70;7.63;;;;;;;;;;5038181;28;20179;-64
2023/07/18 00:33:15;;;;;;;13.03;7.80;;;;;;;;;;5056136;28;20209;-63
2023/07/18 00:35:43;;;;;;;11.33;6.90;;;;;;;;;;5037935;28;20210;-63
2023/07/18 00:38:11;;;;;;;10.37;7.43;;;;;;;;;;5055881;28;20171;-64
2023/07/18 00:40:40;;;;;;;11.47;7.07;;;;;;;;;;5037838;28;20181;-64
2023/07/18 00:43:12;;;;;;;11.43;7.27;;;;;;;;;;5055794;28;20178;-64
2023/07/18 00:45:38;;;;;;;10.87;7.50;;;;;;;;;;5055757;28;20195;-63
2023/07/18 00:48:04;;;;;;;9.23;7.47;;;;;;;;;;5055630;28;20182;-63
2023/07/18 00:50:30;;;;;;;9.93;6.93;;;;;;;;;;5037720;28;20217;-63
2023/07/18 00:52:57;;;;;;;11.23;7.10;;;;;;;;;;5037759;28;20183;-64
2023/07/18 00:55:23;;;;;;;11.15;7.80;;;;;;;;;;5054348;28;20427;-63
2023/07/18 00:57:49;;;;;;;13.02;7.78;;;;;;;;;;5054397;28;20855;-63
2023/07/18 01:00:16;;;;;;;11.88;8.10;;;;;;;;;;5036394;28;20413;-63
2023/07/18 01:02:43;;;;;;;13.80;8.18;;;;;;;;;;5054496;28;20456;-64
2023/07/18 01:05:10;;;;;;;9.77;7.43;;;;;;;;;;5054479;28;20381;-63
2023/07/18 01:07:37;;;;;;;12.38;7.25;;;;;;;;;;5053293;28;20381;-64
2023/07/18 01:10:17;;;;;;;11.38;7.70;;;;;;;;;;5055142;28;20445;-63
2023/07/18 01:12:43;;;;;;;14.02;7.82;;;;;;;;;;5037912;28;20377;-63
2023/07/18 01:15:12;;;;;;;11.27;7.15;;;;;;;;;;5055987;28;20420;-63
2023/07/18 01:17:39;;;;;;;9.50;7.10;;;;;;;;;;5054249;28;20460;-63
2023/07/18 01:20:10;;;;;;;10.77;7.17;;;;;;;;;;5036549;28;20384;-63
2023/07/18 01:22:36;;;;;;;11.40;6.80;;;;;;;;;;5036558;28;20523;-63
2023/07/18 01:25:03;;;;;;;11.65;6.95;;;;;;;;;;5054049;28;20476;-63
2023/07/18 01:27:30;;;;;;;10.98;7.03;;;;;;;;;;5035978;28;20759;-64
2023/07/18 01:29:56;;;;;;;11.80;6.90;;;;;;;;;;5053944;28;20385;-63
2023/07/18 01:32:21;;;;;;;12.03;7.00;;;;;;;;;;5053697;28;20385;-63
2023/07/18 01:34:47;;;;;;;11.93;6.95;;;;;;;;;;5053420;28;20440;-62
2023/07/18 01:37:15;;;;;;;12.45;7.60;;;;;;;;;;5054113;28;20464;-63
2023/07/18 01:39:41;;;;;;;11.60;7.10;;;;;;;;;;5053443;28;20749;-63
2023/07/18 01:42:07;;;;;;;9.88;6.72;;;;;;;;;;5053340;28;20388;-63
2023/07/18 01:44:33;;;;;;;12.20;7.50;;;;;;;;;;5035478;28;20420;-63
2023/07/18 01:46:59;;;;;;;13.13;7.45;;;;;;;;;;5053481;28;20377;-62
2023/07/18 01:49:25;;;;;;;13.32;7.85;;;;;;;;;;5053621;28;20385;-62
2023/07/18 01:51:51;;;;;;;10.50;6.60;;;;;;;;;;5053768;28;20434;-63
2023/07/18 01:54:17;;;;;;;9.27;6.65;;;;;;;;;;5035204;28;20457;-63
2023/07/18 01:56:43;;;;;;;10.33;6.80;;;;;;;;;;5053211;28;20417;-63
2023/07/18 01:59:09;;;;;;;9.90;7.15;;;;;;;;;;5035228;28;20392;-62
2023/07/18 02:01:35;;;;;;;11.07;7.60;;;;;;;;;;5053328;28;20527;-63
2023/07/18 02:04:01;;;;;;;12.82;7.35;;;;;;;;;;5053245;28;20385;-62
2023/07/18 02:06:27;;;;;;;10.70;7.43;;;;;;;;;;5035283;28;20386;-63
2023/07/18 02:08:53;;;;;;;15.88;7.18;;;;;;;;;;5052857;28;20413;-63
2023/07/18 02:11:19;;;;;;;11.98;7.57;;;;;;;;;;5052897;28;20377;-63
2023/07/18 02:13:45;;;;;;;12.10;7.57;;;;;;;;;;5052639;28;20377;-63
2023/07/18 02:16:11;;;;;;;12.32;7.57;;;;;;;;;;5052904;28;20531;-63
2023/07/18 02:18:36;;;;;;;11.77;7.50;;;;;;;;;;5052262;28;20378;-62
2023/07/18 02:21:02;;;;;;;11.50;7.80;;;;;;;;;;5034845;28;20388;-63
2023/07/18 02:23:28;;;;;;;13.87;7.57;;;;;;;;;;5034788;28;20393;-62
2023/07/18 02:25:54;;;;;;;12.95;7.60;;;;;;;;;;5034626;28;20377;-63
2023/07/18 02:28:20;;;;;;;10.88;7.25;;;;;;;;;;5052673;28;20420;-63
2023/07/18 02:30:46;;;;;;;10.80;7.88;;;;;;;;;;5034606;28;20378;-63
2023/07/18 02:33:12;;;;;;;11.80;7.78;;;;;;;;;;5052978;28;20916;-63
2023/07/18 02:35:38;;;;;;;12.30;7.75;;;;;;;;;;5052351;28;20884;-63
2023/07/18 02:38:04;;;;;;;11.60;7.25;;;;;;;;;;5034482;28;20372;-63
2023/07/18 02:40:30;;;;;;;13.53;7.67;;;;;;;;;;5052361;28;20397;-63
2023/07/18 02:42:56;;;;;;;13.35;7.30;;;;;;;;;;5052602;28;20378;-63
2023/07/18 02:45:22;;;;;;;10.97;7.53;;;;;;;;;;5052221;28;20381;-63
2023/07/18 02:47:48;;;;;;;11.77;7.68;;;;;;;;;;5052576;28;20390;-63
2023/07/18 02:50:14;;;;;;;11.82;7.80;;;;;;;;;;5034352;28;20443;-63
2023/07/18 02:52:40;;;;;;;11.93;8.70;;;;;;;;;;5035013;28;20386;-63
2023/07/18 02:55:06;;;;;;;15.60;7.93;;;;;;;;;;5052309;28;20500;-63
2023/07/18 02:57:32;;;;;;;16.63;9.20;;;;;;;;;;5052132;28;20382;-64
2023/07/18 02:59:59;;;;;;;14.02;8.63;;;;;;;;;;5052092;28;20377;-63
2023/07/18 03:02:25;;;;;;;11.60;8.40;;;;;;;;;;5052079;28;20430;-63
2023/07/18 03:04:50;;;;;;;13.32;7.82;;;;;;;;;;5052444;28;20381;-65
2023/07/18 03:07:17;;;;;;;10.90;7.13;;;;;;;;;;5053012;28;20385;-65
2023/07/18 03:09:44;;;;;;;10.38;7.60;;;;;;;;;;5034428;28;20392;-63
2023/07/18 03:12:10;;;;;;;10.63;7.20;;;;;;;;;;5034214;28;20415;-63
2023/07/18 03:14:36;;;;;;;10.70;7.50;;;;;;;;;;5051619;28;20472;-65
2023/07/18 03:17:02;;;;;;;11.45;7.75;;;;;;;;;;5052166;28;20389;-64
2023/07/18 03:19:31;;;;;;;9.98;7.35;;;;;;;;;;5034011;28;20851;-64
2023/07/18 03:21:57;;;;;;;12.43;7.35;;;;;;;;;;5052561;28;20381;-65
2023/07/18 03:24:23;;;;;;;10.25;7.22;;;;;;;;;;5052047;28;20439;-64
2023/07/18 03:26:49;;;;;;;12.82;7.57;;;;;;;;;;5051828;28;20389;-64
2023/07/18 03:29:15;;;;;;;12.38;7.38;;;;;;;;;;5052114;28;20393;-63
2023/07/18 03:31:42;;;;;;;12.45;7.88;;;;;;;;;;5056056;28;20385;-63
2023/07/18 03:34:08;;;;;;;10.10;6.90;;;;;;;;;;5037992;28;20377;-63
2023/07/18 03:36:35;;;;;;;9.93;6.93;;;;;;;;;;5055900;28;20887;-63
2023/07/18 03:39:01;;;;;;;10.52;7.63;;;;;;;;;;5055940;28;20419;-64
2023/07/18 03:41:27;;;;;;;10.43;7.40;;;;;;;;;;5056136;28;20407;-62
2023/07/18 03:43:53;;;;;;;11.50;7.32;;;;;;;;;;5055967;28;20441;-63
2023/07/18 03:46:19;;;;;;;16.88;7.45;;;;;;;;;;5038650;28;20385;-63
2023/07/18 03:48:45;;;;;;;14.90;7.38;;;;;;;;;;5055735;28;20388;-63
2023/07/18 03:51:11;;;;;;;11.52;7.30;;;;;;;;;;5055820;28;20392;-63
2023/07/18 03:53:38;;;;;;;13.03;7.53;;;;;;;;;;5055508;28;20377;-63
2023/07/18 03:56:07;;;;;;;11.68;7.40;;;;;;;;;;5055798;28;20411;-63
2023/07/18 03:58:33;;;;;;;10.15;7.13;;;;;;;;;;5055592;28;20377;-64
2023/07/18 04:01:05;;;;;;;11.10;7.07;;;;;;;;;;5055971;28;20472;-64
2023/07/18 04:03:31;;;;;;;10.43;6.70;;;;;;;;;;5062661;28;20382;-64
2023/07/18 04:05:57;;;;;;;11.60;7.57;;;;;;;;;;5063818;28;20751;-63
2023/07/18 04:08:23;;;;;;;9.77;6.85;;;;;;;;;;5057346;28;20867;-63
2023/07/18 04:10:49;;;;;;;11.90;7.20;;;;;;;;;;5056397;28;20405;-63
2023/07/18 04:13:15;;;;;;;10.05;7.43;;;;;;;;;;5055791;28;20377;-62
2023/07/18 04:15:41;;;;;;;11.57;7.55;;;;;;;;;;5077777;22;20436;-68
2023/07/18 04:18:07;;;;;;;13.30;7.55;;;;;;;;;;5037237;28;20378;-68
2023/07/18 04:20:33;;;;;;;11.97;7.27;;;;;;;;;;5037276;28;20393;-68
2023/07/18 04:22:59;;;;;;;11.43;6.97;;;;;;;;;;5055154;28;20385;-68
2023/07/18 04:25:30;;;;;;;14.30;7.70;;;;;;;;;;5038708;28;20412;-68
2023/07/18 04:27:56;;;;;;;11.00;7.72;;;;;;;;;;5058558;28;20421;-68
2023/07/18 04:30:22;;;;;;;11.35;7.35;;;;;;;;;;5059306;28;20393;-67
2023/07/18 04:32:48;;;;;;;10.68;7.00;;;;;;;;;;5056905;28;20386;-68
2023/07/18 04:35:14;;;;;;;9.17;6.83;;;;;;;;;;5055290;28;20942;-68
2023/07/18 04:37:40;;;;;;;11.90;7.05;;;;;;;;;;5055169;28;20374;-68
2023/07/18 04:40:06;;;;;;;12.95;7.57;;;;;;;;;;5054785;28;20848;-68
2023/07/18 04:42:33;;;;;;;10.75;7.07;;;;;;;;;;5054790;28;20400;-68
2023/07/18 04:44:59;;;;;;;11.82;7.13;;;;;;;;;;5054800;28;20382;-68
2023/07/18 04:47:25;;;;;;;14.77;7.27;;;;;;;;;;5036859;28;20808;-68
2023/07/18 04:49:51;;;;;;;12.80;7.45;;;;;;;;;;5055979;28;20386;-68
2023/07/18 04:52:18;;;;;;;12.87;7.97;;;;;;;;;;5055554;28;20524;-68
2023/07/18 04:54:44;;;;;;;11.82;7.35;;;;;;;;;;5054468;28;20389;-68
2023/07/18 04:57:10;;;;;;;13.30;7.70;;;;;;;;;;5054488;28;20473;-68
2023/07/18 04:59:36;;;;;;;12.95;7.82;;;;;;;;;;5054395;28;20389;-68
2023/07/18 05:02:01;;;;;;;12.68;6.97;;;;;;;;;;5036594;28;20439;-68
2023/07/18 05:04:28;;;;;;;10.93;6.40;;;;;;;;;;5037622;28;20177;-68
2023/07/18 05:06:54;;;;;;;7.13;5.40;;;;;;;;;;5055516;28;20198;-69
2023/07/18 05:09:20;;;;;;;15.00;6.27;;;;;;;;;;5055799;28;20257;-68
2023/07/18 05:11:47;;;;;;;13.80;6.30;;;;;;;;;;5037622;28;20174;-68
2023/07/18 05:14:13;;;;;;;13.27;6.23;;;;;;;;;;5055544;28;20220;-68
2023/07/18 05:16:39;;;;;;;8.20;6.20;;;;;;;;;;5055160;28;20631;-69
2023/07/18 05:19:05;;;;;;;8.97;6.13;;;;;;;;;;5055991;28;20174;-69
2023/07/18 05:21:31;;;;;;;9.90;5.63;;;;;;;;;;5037301;28;20187;-69
2023/07/18 05:23:57;;;;;;;11.43;6.80;;;;;;;;;;5055674;28;20182;-68
2023/07/18 05:26:23;;;;;;;11.27;6.33;;;;;;;;;;5055052;28;20205;-70
2023/07/18 05:28:49;;;;;;;9.30;6.63;;;;;;;;;;5037214;28;20731;-69
2023/07/18 05:31:15;;;;;;;12.50;6.60;;;;;;;;;;5037560;28;20187;-69
2023/07/18 05:33:41;;;;;;;9.30;6.53;;;;;;;;;;5036936;28;20232;-68
2023/07/18 05:36:07;;;;;;;10.63;6.97;;;;;;;;;;5036950;28;20218;-68
2023/07/18 05:38:33;;;;;;;17.10;7.20;;;;;;;;;;5054917;28;20174;-69
2023/07/18 05:40:59;;;;;;;13.33;7.13;;;;;;;;;;5054944;28;20178;-68
2023/07/18 05:43:25;;;;;;;9.93;5.70;;;;;;;;;;5037553;28;20174;-68
2023/07/18 05:45:51;;;;;;;8.17;5.53;;;;;;;;;;5054813;28;20206;-68
2023/07/18 05:48:17;;;;;;;12.67;4.80;;;;;;;;;;5054721;28;20237;-69
2023/07/18 05:50:43;;;;;;;7.53;5.10;;;;;;;;;;5054647;28;20309;-69
2023/07/18 05:53:09;;;;;;;9.73;5.00;;;;;;;;;;5035997;28;20179;-68
2023/07/18 05:55:35;;;;;;;7.47;5.40;;;;;;;;;;5036630;28;20221;-69
2023/07/18 05:58:00;;;;;;;13.90;5.10;;;;;;;;;;5055033;28;20171;-69
2023/07/18 06:00:26;;;;;;;7.10;4.93;;;;;;;;;;5054442;28;20568;-68
2023/07/18 06:02:52;;;;;;;10.27;5.73;;;;;;;;;;5036585;28;20588;-68
2023/07/18 06:05:19;;;;;;;8.67;5.80;;;;;;;;;;5054219;28;20677;-68
2023/07/18 06:07:45;;;;;;;12.33;6.07;;;;;;;;;;5036506;28;20269;-68
2023/07/18 06:10:11;;;;;;;11.20;5.90;;;;;;;;;;5054165;28;20214;-68
2023/07/18 06:12:37;;;;;;;10.53;6.20;;;;;;;;;;5036803;28;20543;-68
2023/07/18 06:15:04;;;;;;;14.07;5.57;;;;;;;;;;5054054;28;20664;-68
2023/07/18 06:17:30;;;;;;;12.57;6.07;;;;;;;;;;5054782;28;20219;-68
2023/07/18 06:19:56;;;;;;;14.03;6.33;;;;;;;;;;5036228;28;20175;-68
2023/07/18 06:22:21;;;;;;;12.57;6.60;;;;;;;;;;5054193;28;20170;-68
2023/07/18 06:24:47;;;;;;;11.93;6.17;;;;;;;;;;5036192;28;20179;-68
2023/07/18 06:27:13;;;;;;;10.63;6.03;;;;;;;;;;5054072;28;20217;-68
2023/07/18 06:29:39;;;;;;;12.03;5.73;;;;;;;;;;5053825;28;20541;-68
2023/07/18 06:32:05;;;;;;;14.13;6.00;;;;;;;;;;5036347;28;20203;-68
2023/07/18 06:34:33;;;;;;;18.17;6.20;;;;;;;;;;5039160;28;20190;-68
2023/07/18 06:36:59;;;;;;;11.67;6.13;;;;;;;;;;5057318;28;20202;-68
2023/07/18 06:39:26;;;;;;;11.03;6.07;;;;;;;;;;5035850;28;20183;-68
2023/07/18 06:41:52;;;;;;;11.97;6.33;;;;;;;;;;5054013;28;20167;-68
2023/07/18 06:44:19;;;;;;;11.97;5.50;;;;;;;;;;5035697;28;20239;-68
2023/07/18 06:46:45;;;;;;;12.83;6.37;;;;;;;;;;5035501;28;20206;-68
2023/07/18 06:49:13;;;;;;;11.00;5.30;;;;;;;;;;5053424;28;20236;-68
2023/07/18 06:51:39;;;;;;;7.90;5.23;;;;;;;;;;5035522;28;20189;-68
2023/07/18 06:54:04;;;;;;;11.97;5.13;;;;;;;;;;5053286;28;20178;-68
2023/07/18 06:56:30;;;;;;;9.07;5.77;;;;;;;;;;5035252;28;20304;-68
2023/07/18 06:58:56;;;;;;;9.47;6.27;;;;;;;;;;5035614;28;20185;-68
2023/07/18 07:01:22;;;;;;;16.47;6.00;;;;;;;;;;5035359;28;20182;-68
2023/07/18 07:03:49;;;;;;;7.43;5.40;;;;;;;;;;5035348;28;20273;-69
2023/07/18 07:06:17;;;;;;;12.87;5.63;;;;;;;;;;5053306;28;20255;-68
2023/07/18 07:08:42;;;;;;;9.70;4.90;;;;;;;;;;5035133;28;20221;-68
2023/07/18 07:11:09;;;;;;;9.13;5.03;;;;;;;;;;5035254;28;20214;-68
2023/07/18 07:13:36;;;;;;;11.43;5.43;;;;;;;;;;5053060;28;20606;-68
2023/07/18 07:16:03;;;;;;;6.33;4.20;;;;;;;;;;5034856;28;20214;-68
2023/07/18 07:18:29;;;;;;;10.73;6.03;;;;;;;;;;5035095;28;20546;-68
2023/07/18 07:20:55;;;;;;;11.40;4.97;;;;;;;;;;5035130;28;20179;-68
2023/07/18 07:23:21;;;;;;;8.03;4.40;;;;;;;;;;5035091;28;20179;-68
2023/07/18 07:25:47;;;;;;;10.57;5.27;;;;;;;;;;5034957;28;20195;-68
2023/07/18 07:28:13;;;;;;;11.20;5.70;;;;;;;;;;5035400;28;20193;-68
2023/07/18 07:30:40;;;;;;;10.13;4.60;;;;;;;;;;5035243;28;20277;-68
2023/07/18 07:33:06;;;;;;;8.93;4.67;;;;;;;;;;5035004;28;20182;-68
2023/07/18 07:35:32;;;;;;;11.57;5.63;;;;;;;;;;5052784;28;20214;-70
2023/07/18 07:37:58;;;;;;;11.97;5.43;;;;;;;;;;5052928;28;20179;-69
2023/07/18 07:40:24;;;;;;;8.97;4.47;;;;;;;;;;5053086;28;20542;-68
2023/07/18 07:42:50;;;;;;;12.50;5.83;;;;;;;;;;5053193;28;20220;-68
2023/07/18 07:45:16;;;;;;;9.60;4.70;;;;;;;;;;5035263;28;20202;-68
2023/07/18 07:47:43;;;;;;;9.10;6.00;;;;;;;;;;5053632;28;20597;-68
2023/07/18 07:50:09;;;;;;;9.17;4.73;;;;;;;;;;5053111;28;20729;-68
2023/07/18 07:52:35;;;;;;;11.33;5.50;;;;;;;;;;5052938;28;20175;-69
2023/07/18 07:55:02;;;;;;;7.80;4.17;;;;;;;;;;5052662;28;20199;-68
2023/07/18 07:57:28;;;;;;;12.60;7.00;;;;;;;;;;5034725;28;20268;-68
2023/07/18 07:59:54;;;;;;;6.73;3.90;;;;;;;;;;5034860;28;20581;-68
2023/07/18 08:02:20;;;;;;;8.90;4.00;;;;;;;;;;5034735;28;20170;-70
2023/07/18 08:04:46;;;;;;;7.73;3.53;;;;;;;;;;5034849;28;20762;-68
2023/07/18 08:07:12;;;;;;;7.03;3.73;;;;;;;;;;5034629;28;20226;-68
2023/07/18 08:09:39;;;;;;;11.43;3.47;;;;;;;;;;5034813;28;20244;-69
2023/07/18 08:12:05;;;;;;;5.70;3.17;;;;;;;;;;5034845;28;20623;-69
2023/07/18 08:14:32;;;;;;;4.03;2.87;;;;;;;;;;5034607;28;20228;-68
2023/07/18 08:16:58;;;;;;;17.27;5.90;;;;;;;;;;5055213;28;20218;-68
2023/07/18 08:19:24;;;;;;;5.90;2.87;;;;;;;;;;5056870;28;20607;-68
2023/07/18 08:21:50;;;;;;;8.87;4.07;;;;;;;;;;5040769;28;20178;-69
2023/07/18 08:24:17;;;;;;;13.63;6.23;;;;;;;;;;5038598;28;20179;-68
2023/07/18 08:26:43;;;;;;;4.97;2.80;;;;;;;;;;5038683;28;20194;-67
2023/07/18 08:29:08;;;;;;;6.27;2.60;;;;;;;;;;5038584;28;20325;-68
2023/07/18 08:31:34;;;;;;;9.13;2.87;;;;;;;;;;5056776;28;20209;-68
2023/07/18 08:34:00;;;;;;;4.70;2.77;;;;;;;;;;5038564;28;20217;-68
2023/07/18 08:36:27;;;;;;;6.47;2.67;;;;;;;;;;5037990;28;20226;-68
2023/07/18 08:38:54;;;;;;;4.70;2.33;;;;;;;;;;5055744;28;20179;-68
2023/07/18 08:41:20;;;;;;;9.03;2.27;;;;;;;;;;5055660;28;20179;-68
2023/07/18 08:43:46;;;;;;;8.10;2.53;;;;;;;;;;5037928;28;20181;-68
2023/07/18 08:46:13;;;;;;;6.00;2.50;;;;;;;;;;5055895;28;20277;-68
2023/07/18 08:48:41;;;;;;;8.43;3.20;;;;;;;;;;5037723;28;20269;-68
2023/07/18 08:51:07;;;;;;;3.80;2.30;;;;;;;;;;5037756;28;20185;-69
2023/07/18 08:53:34;;;;;;;9.47;2.70;;;;;;;;;;5037873;28;20235;-68
2023/07/18 08:56:00;;;;;;;5.40;2.50;;;;;;;;;;5037462;28;20214;-68
2023/07/18 08:58:27;;;;;;;5.80;2.40;;;;;;;;;;5037638;28;20174;-68
2023/07/18 09:00:53;;;;;;;4.73;2.37;;;;;;;;;;5037512;28;20178;-68
2023/07/18 09:03:19;;;;;;;6.03;2.30;;;;;;;;;;5037633;28;20206;-68
2023/07/18 09:05:44;;;;;;;8.43;2.40;;;;;;;;;;5037416;28;20312;-69
2023/07/18 09:08:10;;;;;;;4.23;1.73;;;;;;;;;;5055461;28;20179;-68
2023/07/18 09:10:36;;;;;;;5.50;2.17;;;;;;;;;;5055928;28;20186;-68
2023/07/18 09:13:04;;;;;;;5.20;2.23;;;;;;;;;;5055560;28;20529;-68
2023/07/18 09:15:31;;;;;;;3.67;1.90;;;;;;;;;;5056489;28;20221;-68
2023/07/18 09:17:58;;;;;;;4.27;1.83;;;;;;;;;;5055227;28;20599;-68
2023/07/18 09:20:25;;;;;;;4.73;2.10;;;;;;;;;;5055175;28;20596;-68
2023/07/18 09:22:58;;;;;;;4.10;2.00;;;;;;;;;;5057163;28;20675;-68
2023/07/18 09:25:24;;;;;;;5.47;2.20;;;;;;;;;;5055236;28;20281;-68
2023/07/18 09:27:55;;;;;;;5.43;2.40;;;;;;;;;;5036162;28;20281;-68
2023/07/18 09:30:22;;;;;;;9.67;2.47;;;;;;;;;;5055068;28;20182;-68
2023/07/18 09:32:50;;;;;;;6.87;2.53;;;;;;;;;;5054936;28;20221;-68
2023/07/18 09:35:16;;;;;;;3.63;2.30;;;;;;;;;;5036829;28;20214;-68
2023/07/18 09:37:46;;;;;;;3.70;2.10;;;;;;;;;;5055517;28;20171;-66
2023/07/18 09:40:17;;;;;;;6.23;2.70;;;;;;;;;;5037074;28;20213;-68
2023/07/18 09:42:44;;;;;;;5.80;2.70;;;;;;;;;;5036901;28;20560;-69
2023/07/18 09:45:11;;;;;;;3.37;2.43;;;;;;;;;;5054495;28;20667;-66
2023/07/18 09:47:38;;;;;;;4.23;1.90;;;;;;;;;;5054676;28;20228;-66
2023/07/18 09:50:04;;;;;;;4.77;2.20;;;;;;;;;;5037079;28;20194;-68
2023/07/18 09:52:33;;;;;;;4.93;2.10;;;;;;;;;;5055255;28;20261;-68
2023/07/18 09:55:04;;;;;;;7.00;2.50;;;;;;;;;;5036948;28;20182;-68
2023/07/18 09:57:30;;;;;;;4.30;2.30;;;;;;;;;;5055089;28;20533;-68
2023/07/18 09:59:58;;;;;;;6.63;2.67;;;;;;;;;;5054573;28;20248;-68
2023/07/18 10:02:24;;;;;;;5.70;1.97;;;;;;;;;;5036547;28;20183;-68
2023/07/18 10:04:50;;;;;;;7.93;2.20;;;;;;;;;;5054123;28;20174;-68
2023/07/18 10:07:16;;;;;;;7.77;2.50;;;;;;;;;;5054319;28;20206;-67
2023/07/18 10:09:42;;;;;;;3.90;2.40;;;;;;;;;;5054865;28;20170;-66
2023/07/18 10:12:09;;;;;;;7.13;2.37;;;;;;;;;;5054000;28;20179;-66
2023/07/18 10:14:47;;;;;;;5.30;2.10;;;;;;;;;;5036108;28;20187;-67
2023/07/18 10:17:26;;;;;;;2.50;2.10;;;;;;;;;;5053722;28;20225;-66
2023/07/18 10:19:52;;;;;;;3.53;2.07;;;;;;;;;;5054155;28;20213;-66
2023/07/18 10:22:36;;;;;;;4.50;2.07;;;;;;;;;;5053776;28;20175;-68
2023/07/18 10:25:06;;;;;;;5.83;2.40;;;;;;;;;;5054402;28;20198;-67
2023/07/18 10:27:39;;;;;;;5.27;2.10;;;;;;;;;;5036349;28;20594;-66
2023/07/18 10:30:07;;;;;;;5.27;2.50;;;;;;;;;;5036503;28;20648;-67
2023/07/18 10:32:35;;;;;;;2.90;1.90;;;;;;;;;;5035815;28;20210;-67
2023/07/18 10:35:05;;;;;;;4.20;1.83;;;;;;;;;;5054050;28;20257;-68
2023/07/18 10:37:31;;;;;;;2.63;1.70;;;;;;;;;;5035879;28;20717;-67
2023/07/18 10:39:57;;;;;;;13.73;7.23;;;;;;;;;;5035513;28;20257;-67
2023/07/18 10:42:25;;;;;;;5.97;3.03;;;;;;;;;;5053941;28;20543;-67
2023/07/18 10:44:54;;;;;;;5.20;2.20;;;;;;;;;;5053335;28;20636;-68
2023/07/18 10:47:21;;;;;;;5.30;2.10;;;;;;;;;;5035642;28;20656;-67
2023/07/18 10:49:49;;;;;;;4.23;1.83;;;;;;;;;;5053859;28;20170;-67
2023/07/18 10:52:16;;;;;;;3.90;2.00;;;;;;;;;;5035591;28;20188;-67
2023/07/18 10:54:46;;;;;;;3.67;2.00;;;;;;;;;;5053794;28;20174;-67
2023/07/18 10:57:12;;;;;;;5.30;2.07;;;;;;;;;;5054001;28;20202;-67
2023/07/18 10:59:38;;;;;;;8.47;1.97;;;;;;;;;;5053932;28;20172;-68
2023/07/18 11:02:04;;;;;;;10.77;9.03;;;;;;;;;;5055462;28;20187;-67
2023/07/18 11:04:30;;;;;;;8.40;5.53;;;;;;;;;;5057243;28;20683;-67
2023/07/18 11:06:58;;;;;;;8.40;3.10;;;;;;;;;;5053742;28;20221;-67
2023/07/18 11:09:24;;;;;;;3.77;2.40;;;;;;;;;;5035227;28;20754;-68
2023/07/18 11:11:50;;;;;;;2.10;1.90;;;;;;;;;;5053246;28;20250;-68
2023/07/18 11:14:18;;;;;;;2.83;2.10;;;;;;;;;;5035172;28;20597;-67
2023/07/18 11:16:44;;;;;;;3.80;1.90;;;;;;;;;;5035138;28;20225;-67
2023/07/18 11:19:10;;;;;;;3.60;2.13;;;;;;;;;;5053087;28;20171;-67
2023/07/18 11:21:37;;;;;;;4.13;2.10;;;;;;;;;;5053694;28;20167;-67
2023/07/18 11:24:03;;;;;;;4.57;2.50;;;;;;;;;;5035117;28;20552;-68
2023/07/18 11:26:29;;;;;;;4.30;2.47;;;;;;;;;;5052796;28;20194;-68
2023/07/18 11:28:57;;;;;;;11.17;2.00;;;;;;;;;;5052923;28;20175;-68
2023/07/18 11:31:23;;;;;;;8.43;2.40;;;;;;;;;;5034963;28;20185;-67
2023/07/18 11:33:49;;;;;;;3.47;2.10;;;;;;;;;;5052910;28;20174;-67
2023/07/18 11:36:15;;;;;;;4.53;2.20;;;;;;;;;;5052834;28;20684;-68
2023/07/18 11:38:41;;;;;;;6.67;2.37;;;;;;;;;;5053219;28;20257;-67
2023/07/18 11:41:13;;;;;;;3.13;2.23;;;;;;;;;;5052707;28;20225;-68
2023/07/18 11:43:41;;;;;;;9.60;2.27;;;;;;;;;;5053158;28;20163;-67
2023/07/18 11:46:08;;;;;;;6.07;2.60;;;;;;;;;;5052729;28;20571;-67
2023/07/18 11:48:34;;;;;;;4.27;2.43;;;;;;;;;;5052704;28;20811;-67
2023/07/18 11:51:04;;;;;;;4.37;2.57;;;;;;;;;;5054371;28;20183;-67
2023/07/18 11:53:31;;;;;;;4.97;2.20;;;;;;;;;;5057017;28;20179;-67
2023/07/18 11:55:57;;;;;;;4.87;2.23;;;;;;;;;;5056962;28;20206;-67
2023/07/18 11:58:24;;;;;;;5.83;2.40;;;;;;;;;;5039406;28;20182;-66
2023/07/18 12:00:50;;;;;;;3.40;2.13;;;;;;;;;;5056763;28;20175;-68
2023/07/18 12:03:16;;;;;;;2.83;2.17;;;;;;;;;;5038689;28;20179;-68
2023/07/18 12:05:42;;;;;;;4.80;2.60;;;;;;;;;;5038641;28;20293;-66
2023/07/18 12:08:09;;;;;;;4.47;2.63;;;;;;;;;;5056481;28;20260;-67
2023/07/18 12:10:35;;;;;;;4.27;2.53;;;;;;;;;;5057067;28;20557;-66
2023/07/18 12:13:00;;;;;;;4.37;2.67;;;;;;;;;;5056681;28;20253;-69
2023/07/18 12:15:26;;;;;;;3.07;2.47;;;;;;;;;;5056332;28;20244;-67
2023/07/18 12:17:52;;;;;;;2.93;2.40;;;;;;;;;;5056694;28;20212;-67
2023/07/18 12:20:19;;;;;;;3.97;2.63;;;;;;;;;;5056207;28;20177;-67
2023/07/18 12:22:45;;;;;;;6.03;2.70;;;;;;;;;;5056127;28;20206;-66
2023/07/18 12:25:11;;;;;;;2.43;2.23;;;;;;;;;;5056241;28;20217;-67
2023/07/18 12:27:36;;;;;;;6.43;2.60;;;;;;;;;;5056136;28;20632;-67
2023/07/18 12:30:03;;;;;;;5.03;2.80;;;;;;;;;;5038181;28;20251;-67
2023/07/18 12:32:29;;;;;;;5.37;2.90;;;;;;;;;;5038318;28;20261;-67
2023/07/18 12:34:55;;;;;;;6.27;2.83;;;;;;;;;;5056060;28;20239;-67
2023/07/18 12:37:23;;;;;;;7.73;2.67;;;;;;;;;;5056096;28;20720;-68
2023/07/18 12:39:48;;;;;;;3.70;2.70;;;;;;;;;;5056343;28;20253;-67
2023/07/18 12:42:14;;;;;;;4.77;2.73;;;;;;;;;;5056819;28;20271;-68
2023/07/18 12:44:47;;;;;;;3.93;2.67;;;;;;;;;;5038337;28;20182;-67
2023/07/18 12:47:13;;;;;;;5.43;2.73;;;;;;;;;;5038208;28;20248;-68
2023/07/18 12:49:39;;;;;;;3.33;2.23;;;;;;;;;;5056362;28;20175;-67
2023/07/18 12:52:05;;;;;;;3.63;2.60;;;;;;;;;;5056207;28;20181;-69
2023/07/18 12:54:32;;;;;;;7.50;2.90;;;;;;;;;;5038792;28;20186;-67
2023/07/18 12:56:59;;;;;;;4.67;2.50;;;;;;;;;;5038031;28;20297;-67
2023/07/18 12:59:25;;;;;;;4.67;2.83;;;;;;;;;;5055726;28;20170;-67
2023/07/18 13:01:51;;;;;;;6.07;2.60;;;;;;;;;;5055350;28;20184;-67
2023/07/18 13:04:17;;;;;;;6.70;2.93;;;;;;;;;;5037674;28;20224;-67
2023/07/18 13:06:43;;;;;;;6.73;2.80;;;;;;;;;;5055483;28;20267;-67
2023/07/18 13:09:09;;;;;;;5.97;3.37;;;;;;;;;;5055790;28;20182;-68
2023/07/18 13:11:36;;;;;;;3.40;2.40;;;;;;;;;;5055398;28;20182;-67
2023/07/18 13:14:02;;;;;;;5.93;2.57;;;;;;;;;;5037429;28;20186;-67
2023/07/18 13:16:28;;;;;;;5.30;2.87;;;;;;;;;;5055063;28;20225;-67
2023/07/18 13:18:53;;;;;;;5.37;2.73;;;;;;;;;;5055744;28;20183;-67
2023/07/18 13:21:20;;;;;;;3.50;2.60;;;;;;;;;;5055393;28;20186;-67
2023/07/18 13:23:46;;;;;;;3.97;2.73;;;;;;;;;;5037604;28;20210;-67
2023/07/18 13:26:13;;;;;;;5.00;2.60;;;;;;;;;;5055857;28;20272;-67
2023/07/18 13:28:39;;;;;;;5.90;2.70;;;;;;;;;;5055689;28;20536;-67
2023/07/18 13:31:05;;;;;;;5.83;2.97;;;;;;;;;;5054194;28;20464;-67
2023/07/18 13:33:31;;;;;;;4.33;2.80;;;;;;;;;;5055467;28;20184;-67
2023/07/18 13:35:58;;;;;;;4.03;2.87;;;;;;;;;;5055230;28;20293;-67
2023/07/18 13:38:24;;;;;;;6.30;2.90;;;;;;;;;;5037338;28;20186;-67
2023/07/18 13:40:50;;;;;;;4.10;2.33;;;;;;;;;;5054815;28;20178;-67
2023/07/18 13:43:16;;;;;;;4.00;2.70;;;;;;;;;;5054688;28;20258;-67
2023/07/18 13:45:42;;;;;;;4.10;2.70;;;;;;;;;;5055212;28;20230;-67
2023/07/18 13:48:09;;;;;;;3.83;2.80;;;;;;;;;;5037466;28;20623;-68
2023/07/18 13:50:35;;;;;;;;;;;;;;;;;;5055509;28;20033;-67
2023/07/18 13:53:01;;;;;;;;;;;;;;;;;;5055040;28;20282;-66
2023/07/18 13:55:27;;;;;;;6.00;3.20;;;;;;;;;;5054362;28;20166;-66
2023/07/18 13:57:53;;;;;;;4.53;3.00;;;;;;;;;;5054422;28;20171;-67
2023/07/18 14:00:19;;;;;;;8.88;3.15;;;;;;;;;;5054437;28;20257;-67
2023/07/18 14:02:46;;;;;;;5.65;3.20;;;;;;;;;;5054398;28;20615;-67
2023/07/18 14:05:12;;;;;;;;;;;;;;;;;;5055268;28;20430;-67
2023/07/18 14:07:38;;;;;;;6.00;3.00;;;;;;;;;;5053537;28;20489;-67
2023/07/18 14:10:04;;;;;;;;;;;;;;;;;;5055248;28;20505;-67
2023/07/18 14:12:30;;;;;;;;;;;;;;;;;;5055037;28;19912;-67
2023/07/18 14:14:58;;;;;;;;;;;;;;;;;;5053740;28;19905;-67
2023/07/18 14:17:24;;;;;;;;;;;;;;;;;;5055037;28;19908;-67
2023/07/18 14:19:50;;;;;;;4.13;3.28;;;;;;;;;;5053277;28;21011;-66
2023/07/18 14:22:18;;;;;;;5.82;3.30;;;;;;;;;;5054446;28;20185;-67
2023/07/18 14:24:44;;;;;;;5.50;2.92;;;;;;;;;;5054538;28;20179;-67
2023/07/18 14:27:10;;;;;;;5.53;2.90;;;;;;;;;;5035926;28;20202;-67
2023/07/18 14:29:36;;;;;;;4.68;2.70;;;;;;;;;;5053875;28;20170;-67
2023/07/18 14:32:03;;;;;;;5.20;3.25;;;;;;;;;;5053818;28;20189;-68
2023/07/18 14:34:29;;;;;;;4.88;3.20;;;;;;;;;;5054239;28;20637;-67